createdAt,value
2023-01-31T00:00:00.567Z,2.1
2023-01-31T00:06:20.628Z,2.1
2023-01-31T00:12:43.952Z,0.5
2023-01-31T00:19:03.546Z,0.5
2023-01-31T00:25:26.569Z,0.5
2023-01-31T00:31:46.732Z,0.5
2023-01-31T00:38:09.646Z,1.1
2023-01-31T00:44:29.588Z,1.1
2023-01-31T00:50:52.585Z,1.9
2023-01-31T00:57:12.657Z,1.9
2023-01-31T01:03:35.594Z,2.4
2023-01-31T01:09:55.685Z,2.4
2023-01-31T01:16:18.566Z,2
2023-01-31T01:22:38.647Z,2
2023-01-31T01:29:01.620Z,0.2
2023-01-31T01:35:21.969Z,0.2
2023-01-31T01:41:44.593Z,1
2023-01-31T01:48:04.671Z,1
2023-01-31T01:54:27.595Z,2.4
2023-01-31T02:00:47.630Z,2.4
2023-01-31T02:07:10.726Z,2.8
2023-01-31T02:13:30.727Z,2.8
2023-01-31T02:19:53.547Z,1.5
2023-01-31T02:26:13.635Z,1.5
2023-01-31T02:32:36.703Z,2.5
2023-01-31T02:38:56.572Z,2.5
2023-01-31T02:45:19.709Z,2.4
2023-01-31T02:51:39.729Z,2.4
2023-01-31T02:58:02.526Z,1
2023-01-31T03:04:22.633Z,1
2023-01-31T03:10:45.591Z,1.9
2023-01-31T03:17:05.650Z,1.9
2023-01-31T03:23:28.605Z,0.9
2023-01-31T03:29:48.635Z,0.9
2023-01-31T03:36:11.563Z,2.3
2023-01-31T03:42:31.673Z,2.3
2023-01-31T03:48:54.537Z,0.9
2023-01-31T03:55:14.631Z,0.9
2023-01-31T04:01:37.627Z,1
2023-01-31T04:07:57.650Z,1
2023-01-31T04:23:32.145Z,1.3
2023-01-31T04:29:51.508Z,1.3
2023-01-31T04:36:14.689Z,2.2
2023-01-31T04:42:34.712Z,2.2
2023-01-31T04:48:57.673Z,0.6
2023-01-31T04:55:17.846Z,0.6
2023-01-31T05:01:40.702Z,1.4
2023-01-31T05:08:00.654Z,1.4
2023-01-31T05:14:23.527Z,1.4
2023-01-31T05:20:43.580Z,1.4
2023-01-31T05:27:06.922Z,1.5
2023-01-31T05:33:27.794Z,1.5
2023-01-31T05:39:49.547Z,2.5
2023-01-31T05:46:09.530Z,2.5
2023-01-31T05:52:32.542Z,1.6
2023-01-31T05:58:52.627Z,1.6
2023-01-31T06:05:15.579Z,0.8
2023-01-31T06:11:35.537Z,0.8
2023-01-31T06:17:59.094Z,1.9
2023-01-31T06:24:18.554Z,1.9
2023-01-31T06:30:41.786Z,3.4
2023-01-31T06:37:01.634Z,3.4
2023-01-31T06:43:24.571Z,4
2023-01-31T06:49:44.905Z,4
2023-01-31T06:56:07.679Z,1.6
2023-01-31T07:02:27.525Z,1.6
2023-01-31T07:08:50.530Z,2.5
2023-01-31T07:15:10.618Z,2.5
2023-01-31T07:21:33.530Z,1.9
2023-01-31T07:27:53.680Z,1.9
2023-01-31T07:34:16.625Z,2.1
2023-01-31T07:40:36.718Z,2.1
2023-01-31T07:46:59.599Z,2.5
2023-01-31T07:53:19.582Z,2.5
2023-01-31T07:59:42.517Z,1.9
2023-01-31T08:06:02.504Z,1.9
2023-01-31T08:12:25.605Z,2.3
2023-01-31T08:18:45.578Z,2.3
2023-01-31T08:25:08.518Z,4
2023-01-31T08:31:28.730Z,4
2023-01-31T08:37:51.589Z,4
2023-01-31T08:44:11.524Z,4
2023-01-31T08:50:34.657Z,1.8
2023-01-31T08:56:54.657Z,1.8
2023-01-31T09:03:17.764Z,0.3
2023-01-31T09:09:37.594Z,0.3
2023-01-31T09:26:05.827Z,3.7
2023-01-31T09:32:25.544Z,3.7
2023-01-31T09:38:48.493Z,3.7
2023-01-31T09:45:08.548Z,3.7
2023-01-31T09:51:31.935Z,1.7
2023-01-31T09:57:51.594Z,1.7
2023-01-31T10:04:14.773Z,2.4
2023-01-31T10:10:34.500Z,2.4
2023-01-31T10:16:57.595Z,1.9
2023-01-31T10:23:17.593Z,1.9
2023-01-31T10:29:40.627Z,1.5
2023-01-31T10:36:00.588Z,1.5
2023-01-31T10:42:23.632Z,0.8
2023-01-31T10:48:46.869Z,0.8
2023-01-31T10:55:06.555Z,1.5
2023-01-31T11:01:26.662Z,1.5
2023-01-31T11:07:49.537Z,1.5
2023-01-31T11:14:09.565Z,1.5
2023-01-31T11:20:32.683Z,1.7
2023-01-31T11:26:52.596Z,1.7
2023-01-31T11:33:15.652Z,0.5
2023-01-31T11:39:35.595Z,0.5
2023-01-31T11:45:58.628Z,1.5
2023-01-31T11:52:18.594Z,1.5
2023-01-31T11:58:41.572Z,2.3
2023-01-31T12:05:01.587Z,2.3
2023-01-31T12:11:24.837Z,1.8
2023-01-31T12:17:44.791Z,1.8
2023-01-31T12:24:07.599Z,4.7
2023-01-31T12:30:27.651Z,4.7
2023-01-31T12:36:50.629Z,2.3
2023-01-31T12:43:10.547Z,2.3
2023-01-31T12:49:33.609Z,0.9
2023-01-31T12:55:53.511Z,0.9
2023-01-31T13:02:16.559Z,0.3
2023-01-31T13:08:36.771Z,0.3
2023-01-31T13:14:59.801Z,1
2023-01-31T13:21:19.600Z,1
2023-01-31T13:27:42.511Z,1
2023-01-31T13:34:02.609Z,1
2023-01-31T13:40:25.666Z,2.3
2023-01-31T13:46:45.622Z,2.3
2023-01-31T13:53:08.782Z,0.5
2023-01-31T13:59:28.755Z,0.5
2023-01-31T14:05:51.623Z,0.4
2023-01-31T14:12:11.575Z,0.4
2023-01-31T14:36:57.068Z,3.5
2023-01-31T14:43:16.515Z,3.5
2023-01-31T14:49:39.749Z,2.9
2023-01-31T14:55:59.796Z,2.9
2023-01-31T15:02:23.047Z,3.1
2023-01-31T15:08:42.703Z,3.1
2023-01-31T15:15:05.642Z,1.8
2023-01-31T15:21:25.649Z,1.8
2023-01-31T15:27:49.781Z,0.8
2023-01-31T15:34:09.636Z,0.8
2023-01-31T15:40:32.597Z,3.2
2023-01-31T15:46:52.538Z,3.2
2023-01-31T15:53:15.611Z,0.6
2023-01-31T15:59:35.606Z,0.6
2023-01-31T16:05:58.637Z,0.6
2023-01-31T16:12:18.947Z,0.6
2023-01-31T16:18:41.602Z,1.5
2023-01-31T16:25:01.590Z,1.5
2023-01-31T16:31:24.617Z,1.9
2023-01-31T16:37:44.552Z,1.9
2023-01-31T16:44:07.507Z,2
2023-01-31T16:50:41.031Z,2
2023-01-31T16:56:50.669Z,3.1
2023-01-31T17:03:10.496Z,3.1
2023-01-31T17:09:33.639Z,1.1
2023-01-31T17:15:53.591Z,1.1
2023-01-31T17:22:16.622Z,2.1
2023-01-31T17:28:36.660Z,2.1
2023-01-31T17:34:59.518Z,5
2023-01-31T17:41:19.549Z,5
2023-01-31T17:47:42.649Z,3.7
2023-01-31T17:54:02.581Z,3.7
2023-01-31T18:00:25.678Z,12
2023-01-31T18:06:45.605Z,12
2023-01-31T18:13:08.635Z,3.7
2023-01-31T18:19:28.563Z,3.7
2023-01-31T18:25:51.595Z,4.3
2023-01-31T18:32:11.623Z,4.3
2023-01-31T18:38:34.540Z,4.4
2023-01-31T18:44:54.599Z,4.4
2023-01-31T18:51:17.572Z,6.8
2023-01-31T18:57:37.599Z,6.8
2023-01-31T19:04:00.575Z,8.1
2023-01-31T19:10:20.555Z,8.1
2023-01-31T19:16:43.628Z,4.4
2023-01-31T19:23:03.598Z,4.4
2023-01-31T19:29:26.526Z,7.9
2023-01-31T19:53:08.054Z,6.5
2023-01-31T19:59:27.478Z,6.5
2023-01-31T20:05:50.519Z,6.5
2023-01-31T20:12:10.580Z,6.5
2023-01-31T20:18:33.475Z,1.9
2023-01-31T20:24:53.504Z,1.9
2023-01-31T20:31:16.615Z,1.9
2023-01-31T20:37:36.547Z,1.9
2023-01-31T20:43:59.658Z,2.5
2023-01-31T20:50:19.838Z,2.5
2023-01-31T20:56:42.615Z,3
2023-01-31T21:03:02.531Z,3
2023-01-31T21:09:25.550Z,4
2023-01-31T21:15:45.656Z,4
2023-01-31T21:22:08.546Z,3
2023-01-31T21:28:28.596Z,3
2023-01-31T21:34:51.582Z,2.3
2023-01-31T21:41:11.627Z,2.3
2023-01-31T21:47:34.742Z,1.7
2023-01-31T21:53:54.532Z,1.7
2023-01-31T22:00:17.610Z,3.2
2023-01-31T22:06:37.557Z,3.2
2023-01-31T22:13:00.520Z,5.1
2023-01-31T22:19:20.496Z,5.1
2023-01-31T22:25:43.561Z,10
2023-01-31T22:32:03.696Z,10
2023-01-31T22:38:26.656Z,7
2023-01-31T22:44:46.580Z,7
2023-01-31T22:51:09.613Z,7.2
2023-01-31T22:57:29.598Z,7.2
2023-01-31T23:21:47.534Z,14.6
2023-01-31T23:28:07.466Z,14.6
2023-01-31T23:34:30.517Z,14.6
2023-01-31T23:40:50.506Z,14.6
2023-01-31T23:47:13.552Z,6.8
2023-01-31T23:53:33.582Z,6.8
2023-01-31T23:59:56.657Z,7.2
